Weather at Yoshima Helipad

Public forecast

Using degrees Celsius for public forecast. Weather courtesy of forecast.io.

Closest aviation weather report (METAR) to Yoshima Helipad

Closest report is Takamatsu Airport, 14.6 nm (27.0 km) SE. Retrieved 2021/01/21 04:00 UTC (53 minutes ago):

RJOT 210400Z 02004KT 340V090 9999 FEW030 10/03 Q1024

Closest aviation forecast (TAF) to Yoshima Helipad

Closest forecast is Takamatsu Airport, 14.6 nm (27.0 km) SE. Retrieved 2021-01-21 00:30 UTC (4 hours ago):

TAF TAF RJOT 202305Z 2100/2206 35005KT 9999 FEW025 TEMPO 2121/2203 4000 -SHRA BR FEW001 SCT005 BKN008